Shady Beach, South Dakota
Current Conditions -  °F | °C
As of 9:14 PM on Monday 20 Oct 2014 (Local Time) from KVVV Reporting Station
Clear Clear  
Wind Chill: 52°   Ceiling: Unl
Heat Index: 52°   Visibility: 10mi
Dew Point: 39°   Wind: 3mph
Humidity: 62%   Direction: 60°ENE
Pressure: 30.04"   Gusts: NA
Location:  45.3641°N, 96.6682°W
Report Text: KVVV 210214Z AUTO 06003KT 10SM CLR 11/04 A3004 RMK AO2
Loading
Personal Weather Stations






























Interactive Weather Map
Tropical Storm Tracking
New forecast layout! Learn more

10-Day Weather Forecast

Advertisements
Track Severe Weather on mobile